Lagrangeville, NY (12540)

12:52 AM EDT on October 01, 2016 (GMT -0400)
Hitsman Farm | | Change Station

Elev 404 ft 41.65 °N, 73.76 °W | Updated 23 seconds ago

Overcast
Overcast
51.4 °F
Feels Like 51.4 °F
N
0.0
Wind Variable Wind from SE
Gusts 0.0 mph

Today
High -- | Low -- °F
--% Chance of Precip.
Yesterday
High -- | Low -- °F
Precip. -- in
Pressure 30.28 in
Visibility 4.0 miles
Clouds Scattered Clouds 500 ft
Mostly Cloudy 1000 ft
Overcast 1700 ft
Dew Point 51 °F
Humidity 99%
Rainfall 0.01 in
Snow Depth Not available.
6:52 AM 6:35 PM
New Moon, 0% visible
SPECI KPOU 010450Z 35007KT 4SM BR SCT005 BKN010 OVC017 11/11 A3028 RMK AO2 P0001
Pressure 30.28 in
Visibility 4.0 miles
Clouds Scattered Clouds 500 ft
Mostly Cloudy 1000 ft
Overcast 1700 ft
Dew Point 51 °F
Humidity 99%
Rainfall 0.01 in
Snow Depth Not available.
6:52 AM 6:35 PM
New Moon, 0% visible
SPECI KPOU 010450Z 35007KT 4SM BR SCT005 BKN010 OVC017 11/11 A3028 RMK AO2 P0001

10-Day Weather Forecast

Almanac

Astronomy

Oct. 01, 2016 Rise Set
Actual Time
Civil Twilight
Nautical Twilight
Astronomical Twilight
Moon
Length of Visible Light
Length of Day
Tomorrow will be .
, % of the Moon is Illuminated

Today's Extremes

State Highs State Lows

Community

WunderPhotos

Upload Photos

1,942,894 photos uploaded!

WunderBlog® & News

Nearby

Air Quality

  Air Quality AQ Index Pollutant
Not available.

Snow Depth

Station Depth Elevation

Earthquake Activity

City Distance Mag. Time & Date
Minimum magnitude displayed is 2.5.

Coastal Water Temperatures

Place Temperature

Stations

Nearby Weather Stations

Station Location Temp. Windchill Dew Point Humidity Wind Precip. Elev Updated Type
                   

Watches & Warnings

There are currently no watches in effect.